Time;durP1;ratioP1;P1;durP2;ratioP2;P2;SDS_P1;SDS_P2;PMS_P1;PMS_P2;Temp;Humidity;BMP_temperature;BMP_pressure;BME280_temperature;BME280_humidity;BME280_pressure;Samples;Min_cycle;Max_cycle;Signal;HPM_P1;HPM_P2
2023/05/16 00:01:00;;;;;;;;;;;10.60;99.90;;;;;;5068957;28;20032;-64
2023/05/16 00:03:25;;;;;;;23.75;15.48;;;10.50;99.90;;;;;;5080995;28;20005;-64
2023/05/16 00:05:51;;;;;;;;;;;10.50;99.90;;;;;;5075177;28;20044;-64
2023/05/16 00:08:17;;;;;;;21.83;14.43;;;10.60;99.90;;;;;;5080911;28;19927;-64
2023/05/16 00:10:42;;;;;;;;;;;10.60;99.90;;;;;;5072713;28;20404;-63
2023/05/16 00:13:08;;;;;;;24.35;17.05;;;10.60;99.90;;;;;;5059183;28;19967;-64
2023/05/16 00:15:34;;;;;;;;;;;10.60;99.90;;;;;;5061350;28;20106;-64
2023/05/16 00:18:00;;;;;;;23.60;14.35;;;10.60;99.90;;;;;;5065274;28;20391;-64
2023/05/16 00:20:26;;;;;;;;;;;10.70;99.90;;;;;;5062608;28;20029;-64
2023/05/16 00:22:53;;;;;;;26.20;17.57;;;10.70;99.90;;;;;;5049617;28;19920;-64
2023/05/16 00:25:18;;;;;;;27.35;16.15;;;10.60;99.90;;;;;;5059965;28;20045;-64
2023/05/16 00:27:44;;;;;;;;;;;10.60;99.90;;;;;;5052529;28;20041;-65
2023/05/16 00:30:10;;;;;;;25.15;15.93;;;10.70;99.90;;;;;;5046509;28;20001;-65
2023/05/16 00:32:36;;;;;;;32.08;16.15;;;10.60;99.90;;;;;;5045448;28;20040;-64
2023/05/16 00:35:02;;;;;;;;;;;10.50;99.90;;;;;;5045905;28;20040;-64
2023/05/16 00:37:27;;;;;;;26.73;16.67;;;10.50;99.90;;;;;;5063744;28;19920;-64
2023/05/16 00:39:53;;;;;;;25.77;15.38;;;10.60;99.90;;;;;;5066436;28;20503;-64
2023/05/16 00:42:20;;;;;;;20.08;13.93;;;10.60;99.90;;;;;;5048675;28;20045;-64
2023/05/16 00:44:46;;;;;;;26.10;15.73;;;10.60;99.90;;;;;;5045971;28;20041;-65
2023/05/16 00:47:11;;;;;;;21.88;14.13;;;10.60;99.90;;;;;;5045798;28;20061;-64
2023/05/16 00:49:37;;;;;;;;;;;10.60;99.90;;;;;;5045855;28;20049;-65
2023/05/16 00:52:03;;;;;;;22.10;13.68;;;10.50;99.90;;;;;;5048856;28;19923;-63
2023/05/16 00:54:30;;;;;;;22.83;14.85;;;10.60;99.90;;;;;;5046013;28;20045;-63
2023/05/16 00:56:56;;;;;;;23.98;15.50;;;10.50;99.90;;;;;;5049291;28;20049;-64
2023/05/16 00:59:25;;;;;;;23.63;15.13;;;10.60;99.90;;;;;;5046881;28;20845;-63
2023/05/16 01:01:51;;;;;;;26.92;15.68;;;10.60;99.90;;;;;;5054591;28;20123;-63
2023/05/16 01:04:17;;;;;;;;;;;10.60;99.90;;;;;;5065765;28;20670;-64
2023/05/16 01:06:44;;;;;;;28.77;17.63;;;10.40;99.90;;;;;;5052842;28;19935;-64
2023/05/16 01:09:11;;;;;;;26.77;16.58;;;10.20;99.90;;;;;;5065494;28;20057;-64
2023/05/16 01:11:45;;;;;;;32.10;18.65;;;10.10;99.90;;;;;;5058779;28;20044;-63
2023/05/16 01:14:29;;;;;;;30.77;17.83;;;9.90;99.90;;;;;;5046347;28;20643;-63
2023/05/16 01:17:19;;;;;;;29.25;17.20;;;9.80;99.90;;;;;;5047079;28;20646;-65
2023/05/16 01:20:05;;;;;;;26.63;17.38;;;9.70;99.90;;;;;;5064688;28;20036;-65
2023/05/16 01:22:34;;;;;;;26.20;16.08;;;9.80;99.90;;;;;;5060784;28;20052;-65
2023/05/16 01:25:32;;;;;;;27.42;18.00;;;9.80;99.90;;;;;;5060890;28;20497;-65
2023/05/16 01:27:59;;;;;;;27.23;17.67;;;9.80;99.90;;;;;;5044588;28;21027;-65
2023/05/16 01:30:25;;;;;;;28.17;17.20;;;9.70;99.90;;;;;;5042868;28;20559;-65
2023/05/16 01:32:51;;;;;;;;;;;9.60;99.90;;;;;;5045575;28;20033;-65
2023/05/16 01:35:17;;;;;;;29.58;17.92;;;9.60;99.90;;;;;;5045631;28;19920;-64
2023/05/16 01:37:53;;;;;;;;;;;9.70;99.90;;;;;;5049095;28;20044;-64
2023/05/16 01:40:37;;;;;;;23.95;15.13;;;9.70;99.90;;;;;;5060699;28;19924;-65
2023/05/16 01:43:10;;;;;;;30.60;18.15;;;9.80;99.90;;;;;;5054834;28;20190;-65
2023/05/16 01:45:41;;;;;;;32.03;17.38;;;9.70;99.90;;;;;;5054869;28;21114;-65
2023/05/16 01:48:12;;;;;;;31.27;19.00;;;9.70;99.90;;;;;;5049632;28;20055;-65
2023/05/16 01:50:43;;;;;;;32.13;19.38;;;9.70;99.90;;;;;;5045190;28;20037;-66
2023/05/16 01:53:17;;;;;;;30.25;17.73;;;9.80;99.90;;;;;;5059918;28;20048;-64
2023/05/16 01:55:46;;;;;;;24.70;15.52;;;9.70;99.90;;;;;;5050684;28;20053;-65
2023/05/16 01:58:13;;;;;;;35.65;19.55;;;9.80;99.90;;;;;;5046025;28;20037;-66
2023/05/16 02:00:40;;;;;;;28.15;17.05;;;9.60;99.90;;;;;;5043468;28;20044;-65
2023/05/16 02:03:06;;;;;;;27.55;17.65;;;9.60;99.90;;;;;;5055957;28;20082;-65
2023/05/16 02:05:32;;;;;;;30.67;18.23;;;9.60;99.90;;;;;;5053883;28;20412;-65
2023/05/16 02:07:58;;;;;;;;;;;9.60;99.90;;;;;;5054820;28;20123;-65
2023/05/16 02:10:24;;;;;;;24.50;15.23;;;9.60;99.90;;;;;;5063470;28;19926;-65
2023/05/16 02:12:51;;;;;;;24.88;15.10;;;9.70;99.90;;;;;;5057438;28;20500;-66
2023/05/16 02:15:17;;;;;;;22.30;15.00;;;9.60;99.90;;;;;;5057401;28;20063;-66
2023/05/16 02:17:43;;;;;;;;;;;9.70;99.90;;;;;;5045660;28;20037;-66
2023/05/16 02:20:09;;;;;;;20.23;12.23;;;9.70;99.90;;;;;;5045405;28;19920;-65
2023/05/16 02:22:36;;;;;;;19.38;12.55;;;9.60;99.90;;;;;;5044086;28;20048;-65
2023/05/16 02:25:02;;;;;;;16.27;11.35;;;9.60;99.90;;;;;;5054063;28;20055;-65
2023/05/16 02:27:28;;;;;;;14.65;9.93;;;9.60;99.90;;;;;;5044248;28;20037;-65
2023/05/16 02:29:54;;;;;;;19.95;10.40;;;9.60;99.90;;;;;;5044319;28;20045;-65
2023/05/16 02:32:20;;;;;;;;;;;9.50;99.90;;;;;;5046344;28;20048;-64
2023/05/16 02:34:45;;;;;;;9.65;6.53;;;9.40;99.90;;;;;;5047572;28;19920;-65
2023/05/16 02:37:11;;;;;;;;;;;9.30;99.90;;;;;;5038749;28;20046;-65
2023/05/16 02:39:36;;;;;;;9.43;6.15;;;9.20;99.90;;;;;;5044358;28;19917;-64
2023/05/16 02:42:06;;;;;;;9.50;6.20;;;9.20;99.90;;;;;;5042468;28;20051;-65
2023/05/16 02:44:32;;;;;;;8.48;5.65;;;9.20;99.90;;;;;;5060651;28;20508;-64
2023/05/16 02:46:57;;;;;;;;;;;9.20;99.90;;;;;;5044605;28;20051;-64
2023/05/16 02:49:23;;;;;;;9.32;5.47;;;9.30;99.90;;;;;;5043229;28;19958;-64
2023/05/16 02:51:49;;;;;;;;;;;9.30;99.90;;;;;;5043359;28;20039;-65
2023/05/16 02:54:15;;;;;;;10.73;5.53;;;9.20;99.90;;;;;;5058440;28;19917;-65
2023/05/16 02:56:40;;;;;;;;;;;9.20;99.90;;;;;;5044033;28;20086;-65
2023/05/16 02:59:06;;;;;;;9.00;5.30;;;9.10;99.90;;;;;;5044032;28;19971;-64
2023/05/16 03:01:32;;;;;;;7.85;5.35;;;9.20;99.90;;;;;;5042781;28;20415;-64
2023/05/16 03:03:58;;;;;;;;;;;9.30;99.90;;;;;;5044175;28;20043;-65
2023/05/16 03:06:24;;;;;;;6.78;4.43;;;9.20;99.90;;;;;;5060772;28;19920;-65
2023/05/16 03:08:49;;;;;;;;;;;9.30;99.90;;;;;;5056066;28;20040;-64
2023/05/16 03:11:18;;;;;;;4.43;2.90;;;;;;;;;;5043503;28;19917;-65
2023/05/16 03:13:43;;;;;;;4.00;2.78;;;;;;;;;;5050739;28;20059;-65
2023/05/16 03:16:09;;;;;;;;;;;;;;;;;;5050019;28;20590;-65
2023/05/16 03:18:35;;;;;;;4.72;3.17;;;;;;;;;;5055905;28;20349;-65
2023/05/16 03:21:02;;;;;;;;;;;;;;;;;;5059434;28;20536;-64
2023/05/16 03:23:28;;;;;;;4.20;2.90;;;;;;;;;;5047474;28;19916;-65
2023/05/16 03:25:55;;;;;;;4.07;2.55;;;;;;;;;;5051245;28;20048;-65
2023/05/16 03:28:21;;;;;;;4.00;2.97;;;;;;;;;;5042275;28;20031;-65
2023/05/16 03:30:47;;;;;;;3.53;2.55;;;;;;;;;;5036440;28;20503;-64
2023/05/16 03:33:13;;;;;;;3.22;2.40;;;;;;;;;;5043242;28;20132;-64
2023/05/16 03:35:39;;;;;;;;;;;;;;;;;;5052703;28;20125;-64
2023/05/16 03:38:05;;;;;;;5.27;2.27;;;;;;;;;;5043644;28;20006;-63
2023/05/16 03:40:31;;;;;;;2.92;1.85;;;;;;;;;;5057627;28;20103;-64
2023/05/16 03:42:57;;;;;;;;;;;;;;;;;;5064067;28;20046;-64
2023/05/16 03:45:23;;;;;;;3.03;2.38;;;;;;;;;;5046763;28;19923;-64
2023/05/16 03:47:49;;;;;;;3.85;2.90;;;;;;;;;;5043482;28;20076;-63
2023/05/16 03:50:16;;;;;;;3.40;2.50;;;;;;;;;;5057722;28;20036;-63
2023/05/16 03:52:42;;;;;;;4.60;2.97;;;;;;;;;;5064389;28;20504;-64
2023/05/16 03:55:08;;;;;;;3.15;2.35;;;;;;;;;;5054537;28;20124;-64
2023/05/16 03:57:40;;;;;;;3.50;2.67;;;;;;;;;;5046477;28;20871;-63
2023/05/16 04:00:07;;;;;;;3.53;2.53;;;;;;;;;;5058986;28;20033;-64
2023/05/16 04:02:33;;;;;;;4.50;2.58;;;;;;;;;;5063489;28;20185;-64
2023/05/16 04:04:59;;;;;;;3.30;2.38;;;;;;;;;;5059591;28;20319;-63
2023/05/16 04:07:26;;;;;;;;;;;;;;;;;;5046675;28;20607;-64
2023/05/16 04:09:52;;;;;;;2.60;1.92;;;;;;;;;;5055685;28;19931;-63
2023/05/16 04:12:18;;;;;;;;;;;;;;;;;;5066906;28;20389;-64
2023/05/16 04:14:44;;;;;;;3.15;1.40;;;;;;;;;;5060058;28;20017;-63
2023/05/16 04:17:11;;;;;;;;;;;;;;;;;;5055129;28;20113;-64
2023/05/16 04:19:37;;;;;;;2.47;1.33;;;;;;;;;;5052245;28;19923;-64
2023/05/16 04:22:03;;;;;;;;;;;;;;;;;;5053267;28;20412;-64
2023/05/16 04:24:29;;;;;;;3.55;2.25;;;;;;;;;;5046223;28;19966;-63
2023/05/16 04:26:55;;;;;;;4.13;2.20;;;;;;;;;;5045548;28;20044;-64
2023/05/16 04:29:22;;;;;;;6.53;2.75;;;;;;;;;;5046744;28;20041;-64
2023/05/16 04:31:48;;;;;;;3.90;2.80;;;;;;;;;;5065125;28;20047;-64
2023/05/16 04:34:14;;;;;;;;;;;;;;;;;;5066381;28;20032;-64
2023/05/16 04:36:41;;;;;;;5.53;2.40;;;;;;;;;;5066716;28;20027;-64
2023/05/16 04:39:07;;;;;;;3.08;1.98;;;;;;;;;;5062619;28;20044;-64
2023/05/16 04:41:34;;;;;;;6.68;2.33;;;;;;;;;;5046806;28;20148;-64
2023/05/16 04:44:05;;;;;;;4.60;1.90;;;;;;;;;;5043993;28;20044;-64
2023/05/16 04:46:31;;;;;;;4.57;1.77;;;;;;;;;;5046033;28;20053;-64
2023/05/16 04:48:57;;;;;;;8.70;2.55;;;;;;;;;;5046423;28;20037;-64
2023/05/16 04:51:23;;;;;;;;;;;;;;;;;;5046056;28;20626;-63
2023/05/16 04:53:49;;;;;;;3.63;2.08;;;;;;;;;;5046588;28;19927;-63
2023/05/16 04:56:15;;;;;;;4.15;2.25;;;;;;;;;;5045596;28;20041;-63
2023/05/16 04:58:41;;;;;;;;;;;;;;;;;;5046248;28;20044;-64
2023/05/16 05:01:07;;;;;;;4.60;1.85;;;;;;;;;;5044159;28;19920;-64
2023/05/16 05:03:33;;;;;;;;;;;;;;;;;;5046216;28;20041;-63
2023/05/16 05:06:00;;;;;;;3.78;1.70;;;;;;;;;;5049554;28;19924;-64
2023/05/16 05:08:26;;;;;;;5.03;1.90;;;;;;;;;;5045750;28;20052;-64
2023/05/16 05:10:52;;;;;;;7.43;2.65;;;;;;;;;;5053464;28;20036;-64
2023/05/16 05:13:18;;;;;;;6.43;2.17;;;;;;;;;;5065680;28;20125;-64
2023/05/16 05:15:44;;;;;;;7.03;2.33;;;;;;;;;;5056609;28;20041;-64
2023/05/16 05:18:10;;;;;;;9.23;3.80;;;;;;;;;;5052494;28;20484;-63
2023/05/16 05:20:37;;;;;;;7.82;2.85;;;;;;;;;;5040203;28;20041;-63
2023/05/16 05:23:03;;;;;;;10.93;2.70;;;;;;;;;;5043538;28;20068;-63
2023/05/16 05:25:29;;;;;;;23.05;3.28;;;;;;;;;;5048387;28;20581;-63
2023/05/16 05:27:55;;;;;;;7.45;2.83;;;;;;;;;;5049424;28;20045;-65
2023/05/16 05:30:21;;;;;;;10.32;3.10;;;;;;;;;;5037543;28;20044;-66
2023/05/16 05:32:47;;;;;;;;;;;;;;;;;;5043662;28;20565;-68
2023/05/16 05:35:14;;;;;;;10.55;3.30;;;;;;;;;;5038717;28;20011;-65
2023/05/16 05:37:40;;;;;;;15.48;3.10;;;;;;;;;;5044708;28;20059;-66
2023/05/16 05:40:07;;;;;;;15.00;3.28;;;;;;;;;;5045010;28;20041;-66
2023/05/16 05:42:34;;;;;;;11.90;3.03;;;;;;;;;;5062378;28;20254;-66
2023/05/16 05:45:00;;;;;;;13.55;3.65;;;;;;;;;;5061712;28;20705;-66
2023/05/16 05:47:26;;;;;;;;;;;;;;;;;;5050213;28;20060;-67
2023/05/16 05:49:52;;;;;;;6.05;2.72;;;;;;;;;;5045289;28;19971;-63
2023/05/16 05:52:18;;;;;;;14.25;2.80;;;;;;;;;;5044385;28;20040;-66
2023/05/16 05:54:44;;;;;;;13.27;2.92;;;;;;;;;;5043467;28;20047;-66
2023/05/16 05:57:10;;;;;;;18.33;3.22;;;;;;;;;;5048445;28;20037;-66
2023/05/16 05:59:36;;;;;;;17.83;3.30;;;;;;;;;;5042203;28;20044;-65
2023/05/16 06:02:02;;;;;;;;;;;;;;;;;;5043654;28;20502;-65
2023/05/16 06:04:28;;;;;;;12.15;2.40;;;;;;;;;;5042695;28;19917;-65
2023/05/16 06:06:55;;;;;;;;;;;;;;;;;;5046101;28;20765;-66
2023/05/16 06:09:21;;;;;;;13.30;3.00;;;;;;;;;;5044552;28;20007;-66
2023/05/16 06:11:47;;;;;;;15.23;3.42;;;;;;;;;;5050179;28;20044;-65
2023/05/16 06:14:14;;;;;;;;;;;;;;;;;;5063579;28;20064;-66
2023/05/16 06:16:40;;;;;;;14.77;3.30;;;;;;;;;;5050278;28;19999;-65
2023/05/16 06:19:06;;;;;;;17.25;3.25;;;;;;;;;;5046628;28;20048;-64
2023/05/16 06:21:32;;;;;;;20.20;4.32;;;;;;;;;;5051115;28;20032;-64
2023/05/16 06:23:58;;;;;;;;;;;;;;;;;;5043590;28;20503;-65
2023/05/16 06:26:24;;;;;;;16.10;3.25;;;;;;;;;;5046299;28;19929;-64
2023/05/16 06:28:50;;;;;;;16.02;2.90;;;;;;;;;;5049279;28;20488;-64
2023/05/16 06:31:16;;;;;;;19.67;3.50;;;;;;;;;;5041713;28;20033;-65
2023/05/16 06:33:42;;;;;;;;;;;;;;;;;;5064452;28;20036;-65
2023/05/16 06:36:08;;;;;;;14.82;3.03;;;;;;;;;;5047228;28;19917;-64
2023/05/16 06:38:34;;;;;;;;;;;;;;;;;;5063441;28;20500;-63
2023/05/16 06:41:00;;;;;;;15.87;3.30;;;;;;;;;;5047828;28;20273;-64
2023/05/16 06:43:26;;;;;;;;;;;;;;;;;;5057937;28;20271;-64
2023/05/16 06:45:52;;;;;;;17.33;3.88;;;;;;;;;;5048179;28;20127;-65
2023/05/16 06:48:19;;;;;;;;;;;;;;;;;;5039242;28;20545;-65
2023/05/16 06:50:50;;;;;;;19.45;3.90;;;;;;;;;;5034776;28;19920;-64
2023/05/16 06:53:17;;;;;;;10.93;2.60;;;;;;;;;;5037912;28;20041;-64
2023/05/16 06:55:43;;;;;;;11.32;2.72;;;;;;;;;;5063998;28;20142;-64
2023/05/16 06:58:09;;;;;;;18.20;3.28;;;;;;;;;;5041739;28;20493;-64
2023/05/16 07:00:35;;;;;;;10.15;2.60;;;;;;;;;;5040674;28;20041;-65
2023/05/16 07:03:02;;;;;;;14.73;3.20;;;;;;;;;;5037141;28;20482;-64
2023/05/16 07:05:28;;;;;;;13.65;3.20;;;;;;;;;;5043495;28;20047;-65
2023/05/16 07:07:54;;;;;;;19.40;3.72;;;;;;;;;;5053903;28;20048;-64
2023/05/16 07:10:20;;;;;;;17.10;3.28;;;;;;;;;;5043047;28;20501;-64
2023/05/16 07:12:47;;;;;;;10.35;2.75;;;;;;;;;;5049723;28;20029;-65
2023/05/16 07:15:13;;;;;;;19.42;3.17;;;;;;;;;;5055480;28;20043;-65
2023/05/16 07:17:40;;;;;;;17.55;3.75;;;;;;;;;;5054743;28;20064;-65
2023/05/16 07:20:08;;;;;;;9.68;2.78;;;;;;;;;;5042980;28;20841;-64
2023/05/16 07:22:35;;;;;;;13.90;3.65;;;;;;;;;;5035528;28;20045;-65
2023/05/16 07:25:01;;;;;;;11.85;2.55;;;;;;;;;;5034967;28;20037;-65
2023/05/16 07:27:27;;;;;;;14.02;3.35;;;;;;;;;;5038569;28;20397;-65
2023/05/16 07:29:53;;;;;;;;;;;;;;;;;;5043047;28;20773;-65
2023/05/16 07:32:20;;;;;;;21.02;3.67;;;;;;;;;;5047087;28;19920;-65
2023/05/16 07:34:46;;;;;;;16.27;3.17;;;;;;;;;;5064090;28;20132;-65
2023/05/16 07:37:12;;;;;;;14.73;2.95;;;;;;;;;;5047320;28;20037;-65
2023/05/16 07:39:42;;;;;;;14.20;2.50;;;;;;;;;;5067898;28;20458;-65
2023/05/16 07:42:08;;;;;;;12.02;2.53;;;;;;;;;;5066597;28;20044;-68
2023/05/16 07:44:34;;;;;;;15.98;3.63;;;;;;;;;;5063743;28;20044;-63
2023/05/16 07:47:00;;;;;;;13.90;2.50;;;;;;;;;;5051829;28;20069;-70
2023/05/16 07:49:27;;;;;;;13.38;2.38;;;;;;;;;;5065687;28;20405;-70
2023/05/16 07:51:53;;;;;;;9.40;2.63;;;;;;;;;;5047093;28;20041;-69
2023/05/16 07:54:19;;;;;;;13.57;2.75;;;;;;;;;;5054183;28;20040;-69
2023/05/16 07:56:46;;;;;;;5.75;1.70;;;;;;;;;;5044183;28;20037;-69
2023/05/16 07:59:13;;;;;;;10.40;2.53;;;;;;;;;;5052525;28;20091;-70
2023/05/16 08:01:39;;;;;;;9.35;1.88;;;;;;;;;;5033301;28;20049;-72
2023/05/16 08:04:05;;;;;;;15.02;2.33;;;;;;;;;;5043634;28;20048;-65
2023/05/16 08:06:33;;;;;;;10.00;2.00;;;;;;;;;;5045783;28;20056;-72
2023/05/16 08:08:59;;;;;;;7.65;2.22;;;;;;;;;;5050766;28;20124;-70
2023/05/16 08:11:25;;;;;;;14.02;1.85;;;;;;;;;;5056531;28;20029;-70
2023/05/16 08:13:51;;;;;;;;;;;;;;;;;;5046975;28;20549;-71
2023/05/16 08:16:17;;;;;;;9.67;1.83;;;;;;;;;;5045869;28;19924;-71
2023/05/16 08:18:43;;;;;;;9.68;1.50;;;;;;;;;;5044670;28;20036;-72
2023/05/16 08:21:09;;;;;;;;;;;;;;;;;;5045111;28;20401;-71
2023/05/16 08:23:35;;;;;;;10.43;1.60;;;;;;;;;;5044353;28;19928;-69
2023/05/16 08:26:01;;;;;;;;;;;;;;;;;;5047991;28;20040;-69
2023/05/16 08:28:28;;;;;;;12.93;2.80;;;;;;;;;;5045192;28;19920;-70
2023/05/16 08:30:54;;;;;;;10.80;2.60;;;;;;;;;;5043469;28;20275;-72
2023/05/16 08:33:20;;;;;;;13.98;1.88;;;;;;;;;;5042133;28;20043;-69
2023/05/16 08:35:48;;;;;;;;;;;;;;;;;;5042743;28;20113;-69
2023/05/16 08:38:14;;;;;;;16.40;2.58;;;;;;;;;;5044256;28;19963;-70
2023/05/16 08:40:40;;;;;;;;;;;;;;;;;;5045958;28;20032;-71
2023/05/16 08:43:06;;;;;;;8.18;2.50;;;;;;;;;;5048407;28;19978;-72
2023/05/16 08:45:33;;;;;;;11.85;2.50;;;;;;;;;;5041298;28;20154;-72
2023/05/16 08:48:00;;;;;;;12.13;2.10;;;;;;;;;;5041835;28;20377;-70
2023/05/16 08:50:30;;;;;;;15.57;2.13;;;;;;;;;;5050960;28;20095;-70
2023/05/16 08:52:57;;;;;;;13.18;2.70;;;;;;;;;;5046776;28;20045;-70
2023/05/16 08:55:24;;;;;;;14.00;2.45;;;;;;;;;;5052088;28;20132;-68
2023/05/16 08:57:53;;;;;;;8.73;2.17;;;;;;;;;;5044578;28;20103;-68
2023/05/16 09:00:19;;;;;;;11.75;2.20;;;;;;;;;;5043767;28;20545;-66
2023/05/16 09:02:46;;;;;;;13.18;1.88;;;;;;;;;;5044936;28;20045;-67
2023/05/16 09:05:13;;;;;;;7.82;2.03;;;;;;;;;;5049008;28;20124;-67
2023/05/16 09:07:39;;;;;;;13.13;2.20;;;;;;;;;;5041313;28;20032;-68
2023/05/16 09:10:08;;;;;;;12.38;3.00;;;;;;;;;;5053608;28;20505;-68
2023/05/16 09:12:34;;;;;;;12.68;2.75;;;;;;;;;;5044660;28;20025;-68
2023/05/16 09:15:05;;;;;;;16.15;3.47;;;;;;;;;;5045920;28;20033;-67
2023/05/16 09:17:35;;;;;;;15.77;2.97;;;;;;;;;;5045974;28;20132;-66
2023/05/16 09:20:07;;;;;;;14.38;3.05;;;;;;;;;;5054973;28;20041;-66
2023/05/16 09:22:33;;;;;;;6.30;1.98;;;;;;;;;;5049251;28;20660;-66
2023/05/16 09:24:59;;;;;;;;;;;;;;;;;;5045124;28;20668;-67
2023/05/16 09:27:26;;;;;;;7.47;1.83;;;;;;;;;;5045610;28;19990;-67
2023/05/16 09:29:52;;;;;;;6.88;1.80;;;;;;;;;;5045694;28;20029;-68
2023/05/16 09:32:18;;;;;;;7.07;1.80;;;;;;;;;;5043055;28;20132;-66
2023/05/16 09:34:48;;;;;;;14.55;2.72;;;;;;;;;;5045020;28;20025;-67
2023/05/16 09:37:17;;;;;;;13.07;2.17;;;;;;;;;;5048067;28;20120;-66
2023/05/16 09:39:50;;;;;;;9.98;1.80;;;;;;;;;;5045486;28;20259;-68
2023/05/16 09:42:17;;;;;;;14.05;1.95;;;;;;;;;;5044641;28;20124;-67
2023/05/16 09:44:46;;;;;;;7.07;1.80;;;;;;;;;;5045014;28;20068;-68
2023/05/16 09:47:16;;;;;;;20.52;1.75;;;;;;;;;;5045747;28;20041;-66
2023/05/16 09:49:44;;;;;;;6.55;1.65;;;;;;;;;;5044575;28;20148;-66
2023/05/16 09:52:10;;;;;;;6.65;1.50;;;;;;;;;;5044764;28;20478;-66
2023/05/16 09:54:36;;;;;;;7.28;1.65;;;;;;;;;;5046212;28;20485;-66
2023/05/16 09:57:02;;;;;;;11.93;2.38;;;;;;;;;;5047956;28;20037;-66
2023/05/16 09:59:29;;;;;;;;;;;;;;;;;;5046302;28;20041;-66
2023/05/16 10:01:57;;;;;;;11.20;2.47;;;;;;;;;;5056538;28;19926;-66
2023/05/16 10:04:23;;;;;;;9.93;2.25;;;;;;;;;;5049242;28;20120;-66
2023/05/16 10:06:49;;;;;;;;;;;;;;;;;;5046290;28;20704;-67
2023/05/16 10:09:16;;;;;;;7.93;1.90;;;;;;;;;;5046562;28;19942;-67
2023/05/16 10:11:42;;;;;;;11.05;2.50;;;;;;;;;;5042321;28;20068;-68
2023/05/16 10:14:11;;;;;;;9.27;1.75;;;;;;;;;;5044174;28;20443;-67
2023/05/16 10:16:39;;;;;;;6.78;1.55;;;;;;;;;;5047739;28;20045;-67
2023/05/16 10:19:05;;;;;;;9.95;1.55;;;;;;;;;;5045996;28;20040;-67
2023/05/16 10:21:31;;;;;;;;;;;;;;;;;;5045553;28;20045;-67
2023/05/16 10:24:01;;;;;;;5.77;1.40;;;;;;;;;;5045276;28;20350;-67
2023/05/16 10:26:27;;;;;;;8.63;1.35;;;;;;;;;;5045288;28;20033;-68
2023/05/16 10:28:53;;;;;;;;;;;;;;;;;;5045447;28;20071;-67
2023/05/16 10:31:20;;;;;;;11.13;2.35;;;;;;;;;;5042011;28;20346;-68
2023/05/16 10:33:46;;;;;;;8.80;1.65;;;;;;;;;;5043474;28;20546;-67
2023/05/16 10:36:14;;;;;;;9.98;1.58;;;;;;;;;;5053049;28;20993;-67
2023/05/16 10:38:42;;;;;;;10.05;1.75;;;;;;;;;;5064596;28;20041;-67
2023/05/16 10:41:08;;;;;;;15.07;2.55;;;;;;;;;;5056524;28;20120;-68
2023/05/16 10:43:34;;;;;;;10.57;1.77;;;;;;;;;;5042269;28;20033;-67
2023/05/16 10:46:00;;;;;;;;;;;;;;;;;;5051402;28;20055;-67
2023/05/16 10:48:37;;;;;;;11.55;2.05;;;;;;;;;;5044089;28;19924;-65
2023/05/16 10:51:04;;;;;;;8.55;2.13;;;;;;;;;;5042119;28;20076;-66
2023/05/16 10:53:31;;;;;;;9.05;2.17;;;;;;;;;;5042947;28;20041;-66
2023/05/16 10:55:57;;;;;;;5.15;1.40;;;;;;;;;;5037073;28;20090;-68
2023/05/16 10:58:24;;;;;;;;;;;;;;;;;;5037936;28;20041;-68
2023/05/16 11:01:10;;;;;;;9.52;1.27;;;;;;;;;;5040221;28;19970;-66
2023/05/16 11:03:36;;;;;;;7.97;1.45;;;;;;;;;;5040999;28;20049;-67
2023/05/16 11:06:02;;;;;;;;;;;;;;;;;;5038736;28;20457;-67
2023/05/16 11:08:28;;;;;;;13.00;2.17;;;;;;;;;;5035355;28;19920;-65
2023/05/16 11:11:14;;;;;;;5.75;1.45;;;;;;;;;;5040995;28;20044;-66
2023/05/16 11:13:53;;;;;;;6.38;1.42;;;;;;;;;;5036565;28;20036;-66
2023/05/16 11:16:29;;;;;;;8.18;1.30;;;;;;;;;;5038645;28;20037;-65
2023/05/16 11:19:03;;;;;;;7.82;1.45;;;;;;;;;;5038086;28;20684;-65
2023/05/16 11:21:48;;;;;;;6.97;1.33;;;;;;;;;;5068185;28;20044;-66
2023/05/16 11:24:30;;;;;;;5.78;1.05;;;;;;;;;;5031007;28;20037;-66
2023/05/16 11:26:58;;;;;;;7.53;2.10;;;;;;;;;;5038619;28;20076;-66
2023/05/16 11:29:24;;;;;;;16.38;1.98;;;;;;;;;;5040459;28;20053;-66
2023/05/16 11:31:52;;;;;;;6.63;1.08;;;;;;;;;;5037220;28;20866;-66
2023/05/16 11:34:18;;;;;;;4.32;1.48;;;;;;;;;;5036779;28;20036;-66
2023/05/16 11:36:44;;;;;;;8.00;1.77;;;;;;;;;;5037485;28;20036;-66
2023/05/16 11:39:11;;;;;;;;;;;;;;;;;;5031695;28;20052;-66
2023/05/16 11:41:37;;;;;;;5.22;1.20;;;;;;;;;;5038866;28;19916;-65
2023/05/16 11:44:05;;;;;;;8.10;1.52;;;;;;;;;;5040061;28;20520;-66
2023/05/16 11:46:33;;;;;;;4.70;1.30;;;;;;;;;;5042559;28;20162;-65
2023/05/16 11:48:59;;;;;;;7.10;1.45;;;;;;;;;;5043187;28;20033;-67
2023/05/16 11:51:26;;;;;;;8.93;1.63;;;;;;;;;;5038053;28;20029;-67
2023/05/16 11:53:52;;;;;;;6.97;1.67;;;;;;;;;;5043102;28;20560;-67
2023/05/16 11:56:22;;;;;;;9.93;2.63;;;;;;;;;;5041045;28;20041;-67
2023/05/16 11:58:49;;;;;;;5.03;1.20;;;;;;;;;;5047002;28;20556;-67
2023/05/16 12:01:15;;;;;;;6.05;1.00;;;;;;;;;;5042211;28;20496;-67
2023/05/16 12:03:41;;;;;;;4.93;1.00;;;;;;;;;;5060635;28;20036;-67
2023/05/16 12:06:07;;;;;;;;;;;;;;;;;;5063812;28;20052;-66
2023/05/16 12:08:33;;;;;;;10.18;1.90;;;;;;;;;;5048162;28;19928;-66
2023/05/16 12:10:59;;;;;;;6.15;1.10;;;;;;;;;;5044168;28;20629;-67
2023/05/16 12:13:26;;;;;;;8.45;1.38;;;;;;;;;;5048506;28;20048;-67
2023/05/16 12:15:52;;;;;;;5.72;1.10;;;;;;;;;;5047175;28;20029;-67
2023/05/16 12:18:19;;;;;;;7.00;1.20;;;;;;;;;;5049726;28;20040;-67
2023/05/16 12:20:46;;;;;;;3.28;1.23;;;;;;;;;;5046187;28;20064;-66
2023/05/16 12:23:12;;;;;;;7.57;1.25;;;;;;;;;;5045873;28;20124;-65
2023/05/16 12:25:44;;;;;;;5.03;0.75;;;;;;;;;;5047169;28;20493;-66
2023/05/16 12:28:12;;;;;;;11.75;1.77;;;;;;;;;;5046588;28;20045;-66
2023/05/16 12:30:40;;;;;;;15.57;4.07;;;;;;;;;;5045057;28;20032;-67
2023/05/16 12:33:10;;;;;;;5.43;1.08;;;;;;;;;;5045660;28;20041;-67
2023/05/16 12:35:43;;;;;;;11.98;1.45;;;;;;;;;;5041085;28;20041;-67
2023/05/16 12:38:11;;;;;;;7.32;1.50;;;;;;;;;;5051628;28;20029;-67
2023/05/16 12:40:38;;;;;;;6.55;1.13;;;;;;;;;;5045037;28;20040;-67
2023/05/16 12:43:04;;;;;;;7.00;1.05;;;;;;;;;;5044878;28;20033;-66
2023/05/16 12:45:30;;;;;;;5.00;1.52;;;;;;;;;;5045047;28;20052;-67
2023/05/16 12:47:56;;;;;;;4.28;1.23;;;;;;;;;;5050111;28;20044;-67
2023/05/16 12:50:22;;;;;;;;;;;;;;;;;;5043648;28;20637;-67
2023/05/16 12:52:53;;;;;;;5.70;1.17;;;;;;;;;;5038179;28;19974;-66
2023/05/16 12:55:19;;;;;;;7.93;1.10;;;;;;;;;;5045199;28;20045;-66
2023/05/16 12:57:46;;;;;;;8.05;1.30;;;;;;;;;;5048525;28;21431;-66
2023/05/16 13:00:13;;;;;;;5.68;1.30;;;;;;;;;;5066544;28;20500;-67
2023/05/16 13:02:40;;;;;;;4.22;1.08;;;;;;;;;;5065019;28;20040;-66
2023/05/16 13:05:06;;;;;;;9.85;1.35;;;;;;;;;;5052128;28;20033;-67
2023/05/16 13:07:35;;;;;;;6.22;1.52;;;;;;;;;;5066058;28;20049;-67
2023/05/16 13:10:03;;;;;;;3.08;0.90;;;;;;;;;;5048090;28;20051;-67
2023/05/16 13:12:29;;;;;;;6.75;1.10;;;;;;;;;;5041586;28;20068;-68
2023/05/16 13:14:55;;;;;;;;;;;;;;;;;;5039701;28;20040;-69
2023/05/16 13:17:22;;;;;;;6.63;0.90;;;;;;;;;;5046397;28;19940;-66
2023/05/16 13:19:48;;;;;;;8.35;1.23;;;;;;;;;;5049548;28;20500;-70
2023/05/16 13:22:14;;;;;;;5.18;1.10;;;;;;;;;;5046646;28;20126;-66
2023/05/16 13:24:41;;;;;;;;;;;;;;;;;;5061921;28;20056;-66
2023/05/16 13:27:06;;;;;;;8.50;1.20;;;;;;;;;;5047914;28;19928;-65
2023/05/16 13:29:32;;;;;;;;;;;;;;;;;;5046267;28;20041;-67
2023/05/16 13:31:58;;;;;;;5.20;1.00;;;;;;;;;;5045303;28;19923;-66
2023/05/16 13:34:24;;;;;;;;;;;;;;;;;;5055078;28;20041;-65
2023/05/16 13:36:51;;;;;;;6.03;1.10;;;;;;;;;;5046082;28;19994;-66
2023/05/16 13:39:17;;;;;;;5.55;1.23;;;;;;;;;;5057131;28;20448;-67
2023/05/16 13:41:43;;;;;;;4.32;1.08;;;;;;;;;;5065215;28;20454;-67
2023/05/16 13:44:09;;;;;;;7.90;1.02;;;;;;;;;;5059309;28;20036;-65
2023/05/16 13:46:35;;;;;;;6.60;1.08;;;;;;;;;;5045486;28;20068;-66
2023/05/16 13:49:01;;;;;;;5.10;1.13;;;;;;;;;;5044380;28;20037;-66
2023/05/16 13:51:27;;;;;;;;;;;;;;;;;;5044425;28;20041;-68
2023/05/16 13:53:53;;;;;;;4.35;0.88;;;;;;;;;;5049008;28;19921;-68
2023/05/16 13:56:19;;;;;;;;;;;;;;;;;;5047229;28;20401;-67
2023/05/16 13:58:45;;;;;;;4.60;1.30;;;;;;;;;;5046727;28;20382;-67
2023/05/16 14:01:12;;;;;;;;;;;;;;;;;;5052855;28;20041;-67
2023/05/16 14:03:38;;;;;;;;;;;;;;;;;;5045328;28;19939;-67
2023/05/16 14:06:04;;;;;;;2.83;0.60;;;;;;;;;;5040764;28;19924;-68
2023/05/16 14:08:30;;;;;;;6.43;1.00;;;;;;;;;;5041974;28;20064;-65
2023/05/16 14:10:56;;;;;;;7.45;1.40;;;;;;;;;;5044828;28;20132;-67
2023/05/16 14:13:22;;;;;;;3.63;0.88;;;;;;;;;;5045074;28;20041;-67
2023/05/16 14:15:48;;;;;;;;;;;;;;;;;;5049323;28;20129;-67
2023/05/16 14:18:14;;;;;;;3.13;0.70;;;;;;;;;;5050426;28;19920;-67
2023/05/16 14:20:40;;;;;;;;;;;;;;;;;;5046737;28;20068;-67
2023/05/16 14:23:06;;;;;;;3.95;0.93;;;;;;;;;;5044891;28;20297;-66
2023/05/16 14:25:32;;;;;;;5.82;1.25;;;;;;;;;;5045211;28;20060;-67
2023/05/16 14:27:58;;;;;;;;;;;;;;;;;;5041952;28;20077;-67
2023/05/16 14:30:25;;;;;;;3.33;1.05;;;;;;;;;;5042106;28;20365;-66